Rooseveltown, New York
Current Conditions -  °F | °C
As of 9:00 AM on Saturday 20 Dec 2014 (Local Time) from KMSS Reporting Station
Few Clouds Few Clouds  
Wind Chill:   Ceiling: Unl
Heat Index:   Visibility: 8mi
Dew Point:   Wind: 3mph
Humidity: 87%   Direction: 190°S
Pressure: 30.36"   Gusts: NA
Location:  44.97°N, 74.73°W
Report Text: KMSS 201400Z AUTO 19003KT 8SM FEW002 M14/M16 A3036 RMK AO2 T11441161
Loading
Personal Weather Stations






























Interactive Weather Map New forecast layout! Learn more

10-Day Weather Forecast

Advertisements
Track Severe Weather on mobile